Time;durP1;ratioP1;P1;durP2;ratioP2;P2;SDS_P1;SDS_P2;PMS_P1;PMS_P2;Temp;Humidity;BMP_temperature;BMP_pressure;BME280_temperature;BME280_humidity;BME280_pressure;Samples;Min_cycle;Max_cycle;Signal;HPM_P1;HPM_P2
2023/01/29 00:01:55;;;;;;;0.40;0.40;;;8.90;57.40;;;;;;4367757;28;10000710;-85
2023/01/29 00:04:21;;;;;;;0.30;0.30;;;8.70;57.70;;;;;;5056723;28;20037;-87
2023/01/29 00:06:47;;;;;;;0.30;0.30;;;8.60;57.90;;;;;;5056313;28;20388;-84
2023/01/29 00:09:13;;;;;;;0.20;0.20;;;8.40;58.10;;;;;;5038720;28;20029;-84
2023/01/29 00:11:39;;;;;;;0.30;0.30;;;8.10;59.30;;;;;;5055448;28;20399;-85
2023/01/29 00:14:05;;;;;;;0.40;0.40;;;8.10;59.20;;;;;;5058356;28;20063;-84
2023/01/29 00:17:49;;;;;;;0.50;0.50;;;8.30;58.40;;;;;;5132444;27;20383;-84
2023/01/29 00:20:15;;;;;;;0.30;0.30;;;8.20;59.00;;;;;;5112480;28;20016;-83
2023/01/29 00:22:41;;;;;;;0.30;0.30;;;8.20;59.00;;;;;;5126956;28;20033;-86
2023/01/29 00:25:07;;;;;;;0.30;0.30;;;8.20;58.90;;;;;;5114050;28;20102;-87
2023/01/29 00:27:33;;;;;;;0.28;0.28;;;8.20;59.10;;;;;;5113993;28;20019;-86
2023/01/29 00:30:08;;;;;;;0.30;0.30;;;8.40;58.50;;;;;;5113831;28;20072;-85
2023/01/29 00:34:20;;;;;;;0.30;0.30;;;8.00;58.50;;;;;;5092323;27;20699;-84
2023/01/29 00:36:45;;;;;;;0.32;0.32;;;7.80;60.10;;;;;;5090546;28;20025;-85
2023/01/29 00:39:14;;;;;;;0.30;0.30;;;7.90;60.00;;;;;;5090430;28;20028;-85
2023/01/29 00:49:54;;;;;;;0.30;0.30;;;8.40;58.20;;;;;;5091129;28;20526;-86
2023/01/29 00:52:22;;;;;;;0.30;0.30;;;8.30;58.50;;;;;;5073070;28;20029;-85
2023/01/29 00:54:48;;;;;;;0.30;0.30;;;8.10;59.20;;;;;;5069765;28;20025;-85
2023/01/29 00:57:14;;;;;;;0.30;0.30;;;8.00;59.70;;;;;;5069642;28;20029;-84
2023/01/29 00:59:40;;;;;;;0.40;0.40;;;8.00;60.00;;;;;;5071437;28;20043;-84
2023/01/29 01:04:49;;;;;;;0.30;0.30;;;7.70;60.30;;;;;;5070698;28;20071;-84
2023/01/29 01:07:15;;;;;;;0.30;0.30;;;7.80;60.50;;;;;;5070625;28;20021;-83
2023/01/29 01:12:25;;;;;;;0.30;0.30;;;8.10;59.80;;;;;;5070788;28;20071;-84
2023/01/29 01:14:50;;;;;;;0.40;0.40;;;8.40;59.30;;;;;;5069639;28;20452;-88
2023/01/29 01:17:16;;;;;;;0.43;0.43;;;8.60;58.90;;;;;;5070413;28;20028;-87
2023/01/29 01:19:42;;;;;;;0.30;0.30;;;8.90;58.50;;;;;;5070249;28;20099;-87
2023/01/29 01:22:08;;;;;;;0.30;0.30;;;9.20;57.40;;;;;;5071163;28;20048;-85
2023/01/29 01:24:33;;;;;;;0.30;0.30;;;9.40;56.80;;;;;;5070532;28;20051;-86
2023/01/29 01:26:59;;;;;;;0.30;0.30;;;9.50;56.50;;;;;;5070082;28;20028;-84
2023/01/29 01:29:24;;;;;;;0.30;0.30;;;9.60;56.90;;;;;;5069335;28;20029;-84
2023/01/29 01:31:52;;;;;;;0.30;0.30;;;9.70;56.40;;;;;;5068958;28;20029;-85
2023/01/29 01:34:18;;;;;;;0.30;0.30;;;9.80;56.50;;;;;;5068840;28;20146;-85
2023/01/29 01:36:44;;;;;;;0.30;0.30;;;9.90;56.70;;;;;;5068910;28;20499;-84
2023/01/29 01:39:10;;;;;;;0.32;0.32;;;9.90;55.80;;;;;;5069030;28;20056;-87
2023/01/29 01:41:35;;;;;;;0.22;0.22;;;9.90;56.00;;;;;;5070006;28;20044;-84
2023/01/29 01:44:03;;;;;;;0.35;0.35;;;10.00;56.00;;;;;;5064166;28;20498;-85
2023/01/29 01:46:32;;;;;;;0.30;0.30;;;9.90;55.90;;;;;;5056529;28;20025;-87
2023/01/29 01:49:03;;;;;;;0.30;0.30;;;9.80;55.80;;;;;;5055538;28;20032;-85
2023/01/29 01:51:32;;;;;;;0.30;0.30;;;9.50;56.20;;;;;;5055665;28;20039;-84
2023/01/29 01:54:14;;;;;;;0.20;0.20;;;9.60;56.50;;;;;;5055766;28;20399;-86
2023/01/29 01:56:48;;;;;;;0.38;0.38;;;9.70;56.10;;;;;;5055827;28;20144;-85
2023/01/29 01:59:17;;;;;;;0.30;0.30;;;9.70;56.10;;;;;;5055242;28;20021;-84
2023/01/29 02:01:50;;;;;;;0.35;0.35;;;9.40;56.40;;;;;;5056113;28;20029;-84
2023/01/29 02:10:17;;;;;;;0.30;0.30;;;9.40;57.00;;;;;;5056314;28;20083;-84
2023/01/29 02:12:44;;;;;;;0.30;0.30;;;9.50;56.70;;;;;;5054793;28;20051;-84
2023/01/29 02:15:11;;;;;;;0.30;0.30;;;9.50;56.40;;;;;;5056122;28;20021;-85
2023/01/29 02:17:37;;;;;;;0.40;0.40;;;9.50;56.60;;;;;;5055847;28;20085;-85
2023/01/29 02:20:23;;;;;;;0.30;0.30;;;9.70;56.40;;;;;;5055635;28;20016;-86
2023/01/29 02:22:55;;;;;;;0.35;0.35;;;9.80;55.80;;;;;;5055008;28;20025;-88
2023/01/29 02:25:51;;;;;;;0.30;0.30;;;9.80;56.00;;;;;;5054776;28;20021;-85
2023/01/29 02:28:35;;;;;;;0.35;0.35;;;9.90;55.50;;;;;;5054630;28;20017;-86
2023/01/29 02:31:09;;;;;;;0.30;0.30;;;9.80;55.90;;;;;;5066379;28;20032;-88
2023/01/29 02:33:40;;;;;;;0.30;0.30;;;9.90;55.40;;;;;;5072398;28;20055;-86
2023/01/29 02:36:25;;;;;;;0.30;0.30;;;9.80;55.40;;;;;;5054812;28;20025;-85
2023/01/29 02:39:05;;;;;;;0.30;0.30;;;9.60;56.00;;;;;;5054211;28;20071;-87
2023/01/29 02:41:41;;;;;;;0.30;0.30;;;9.30;56.90;;;;;;5055140;28;20055;-84
2023/01/29 02:44:23;;;;;;;0.30;0.30;;;9.20;57.40;;;;;;5054205;28;20029;-88
2023/01/29 02:46:59;;;;;;;0.30;0.30;;;9.20;56.60;;;;;;5054537;28;20463;-87
2023/01/29 02:49:41;;;;;;;0.30;0.30;;;9.30;57.00;;;;;;5054054;28;20033;-88
2023/01/29 02:52:16;;;;;;;0.30;0.30;;;9.10;57.10;;;;;;5054238;28;20472;-85
2023/01/29 02:55:09;;;;;;;0.30;0.30;;;9.30;57.30;;;;;;5070876;28;20036;-85
2023/01/29 02:57:38;;;;;;;0.30;0.30;;;9.20;57.40;;;;;;5070419;28;20016;-87
2023/01/29 03:00:16;;;;;;;0.30;0.30;;;9.10;57.90;;;;;;5054191;28;20503;-88
2023/01/29 03:02:54;;;;;;;0.30;0.30;;;9.30;57.00;;;;;;5054110;28;20025;-84
2023/01/29 03:05:29;;;;;;;0.30;0.30;;;9.40;56.80;;;;;;5054642;28;20027;-83
2023/01/29 03:08:01;;;;;;;0.30;0.30;;;9.50;56.80;;;;;;5054076;28;20036;-85
2023/01/29 03:10:41;;;;;;;0.20;0.20;;;9.80;56.50;;;;;;5053790;28;20044;-84
2023/01/29 03:13:17;;;;;;;0.30;0.30;;;10.00;55.30;;;;;;5053939;28;20033;-85
2023/01/29 03:15:50;;;;;;;0.30;0.30;;;10.00;56.00;;;;;;5054889;28;20243;-84
2023/01/29 03:18:20;;;;;;;0.30;0.30;;;10.00;55.40;;;;;;5070297;28;20050;-85
2023/01/29 03:20:51;;;;;;;;;;;10.10;55.40;;;;;;5074153;28;20558;-88
2023/01/29 03:23:25;;;;;;;0.35;0.35;;;10.30;55.40;;;;;;5067745;28;19905;-85
2023/01/29 03:34:22;;;;;;;0.30;0.30;;;10.10;55.30;;;;;;5059072;28;20055;-85
2023/01/29 03:37:01;;;;;;;0.40;0.40;;;9.90;56.20;;;;;;5053455;28;20025;-84
2023/01/29 03:39:28;;;;;;;0.30;0.30;;;9.90;55.80;;;;;;5054528;28;20020;-84
2023/01/29 03:42:20;;;;;;;0.30;0.30;;;9.80;56.10;;;;;;5054650;28;20028;-85
2023/01/29 03:45:04;;;;;;;0.20;0.20;;;10.00;55.90;;;;;;5059157;28;20048;-83
2023/01/29 03:47:51;;;;;;;0.20;0.20;;;9.90;55.50;;;;;;5055858;28;20104;-85
2023/01/29 03:50:22;;;;;;;0.30;0.30;;;9.70;55.80;;;;;;5055801;28;20063;-89
2023/01/29 03:53:00;;;;;;;0.30;0.30;;;9.80;56.20;;;;;;5058524;28;20048;-83
2023/01/29 03:55:41;;;;;;;0.30;0.30;;;9.60;56.50;;;;;;5092914;28;20036;-85
2023/01/29 03:58:19;;;;;;;0.40;0.40;;;9.40;56.60;;;;;;5092906;28;20024;-86
2023/01/29 04:01:09;;;;;;;0.30;0.30;;;9.50;56.30;;;;;;5075693;28;20024;-85
2023/01/29 04:03:46;;;;;;;0.30;0.30;;;9.30;56.60;;;;;;5074843;28;20617;-84
2023/01/29 04:06:22;;;;;;;0.40;0.40;;;9.20;56.50;;;;;;5092364;28;20526;-85
2023/01/29 04:08:56;;;;;;;0.40;0.40;;;9.00;56.60;;;;;;5092217;28;20168;-84
2023/01/29 04:11:23;;;;;;;0.30;0.30;;;8.90;57.20;;;;;;5075480;28;20085;-84
2023/01/29 04:13:50;;;;;;;0.30;0.30;;;9.20;56.50;;;;;;5091793;28;20042;-85
2023/01/29 04:16:21;;;;;;;0.20;0.20;;;9.30;55.90;;;;;;5075408;28;20040;-85
2023/01/29 04:18:47;;;;;;;0.30;0.30;;;9.40;56.10;;;;;;5074255;28;20024;-85
2023/01/29 04:21:14;;;;;;;0.30;0.30;;;9.50;56.00;;;;;;5067369;28;20369;-84
2023/01/29 04:23:40;;;;;;;0.30;0.30;;;9.40;55.60;;;;;;5052625;28;20171;-85
2023/01/29 04:26:05;;;;;;;0.32;0.32;;;9.60;55.60;;;;;;5053751;28;20515;-85
2023/01/29 04:28:47;;;;;;;0.30;0.30;;;9.60;55.20;;;;;;5059467;28;20027;-84
2023/01/29 04:31:13;;;;;;;0.30;0.30;;;9.70;54.90;;;;;;5072594;28;20032;-85
2023/01/29 04:33:46;;;;;;;0.30;0.30;;;9.60;55.40;;;;;;5073401;28;20451;-85
2023/01/29 04:36:20;;;;;;;0.30;0.30;;;9.50;55.30;;;;;;5073671;28;20065;-87
2023/01/29 04:39:01;;;;;;;0.30;0.30;;;9.50;55.50;;;;;;5063357;28;20021;-84
2023/01/29 04:41:38;;;;;;;0.40;0.40;;;9.40;55.60;;;;;;5053719;28;20095;-84
2023/01/29 04:44:18;;;;;;;0.40;0.40;;;9.60;55.00;;;;;;5069567;28;20041;-85
2023/01/29 04:47:17;;;;;;;0.30;0.30;;;9.60;55.00;;;;;;5052768;28;20041;-88
2023/01/29 04:49:46;;;;;;;0.20;0.20;;;9.30;55.40;;;;;;5052526;28;20116;-85
2023/01/29 04:52:30;;;;;;;0.27;0.27;;;9.50;55.50;;;;;;5053645;28;20017;-84
2023/01/29 04:54:59;;;;;;;0.30;0.30;;;9.50;55.60;;;;;;5053406;28;20266;-87
2023/01/29 04:57:33;;;;;;;0.30;0.30;;;9.40;55.60;;;;;;5069651;28;20028;-84
2023/01/29 05:00:23;;;;;;;0.30;0.30;;;9.60;55.10;;;;;;5073746;28;20074;-84
2023/01/29 05:02:49;;;;;;;0.30;0.30;;;9.70;54.90;;;;;;5071940;28;20020;-87
2023/01/29 05:05:18;;;;;;;0.40;0.40;;;9.80;54.00;;;;;;5072559;28;20712;-84
2023/01/29 05:07:46;;;;;;;0.20;0.20;;;9.50;54.70;;;;;;5062941;28;20024;-88
2023/01/29 05:10:14;;;;;;;0.30;0.30;;;9.50;54.70;;;;;;5073540;28;20025;-84
2023/01/29 05:12:44;;;;;;;0.30;0.30;;;9.40;54.80;;;;;;5073242;28;20036;-85
2023/01/29 05:15:16;;;;;;;0.30;0.30;;;9.20;55.50;;;;;;5067317;28;20022;-85
2023/01/29 05:17:42;;;;;;;0.30;0.30;;;9.50;55.30;;;;;;5051952;28;20048;-86
2023/01/29 05:20:10;;;;;;;0.30;0.30;;;9.80;54.30;;;;;;5055775;28;20464;-88
2023/01/29 05:22:41;;;;;;;0.30;0.30;;;9.80;54.10;;;;;;5056818;28;20029;-87
2023/01/29 05:25:22;;;;;;;0.30;0.30;;;9.80;53.70;;;;;;5055781;28;20118;-85
2023/01/29 05:28:05;;;;;;;0.30;0.30;;;9.40;54.10;;;;;;5057487;28;20033;-84
2023/01/29 05:30:33;;;;;;;0.30;0.30;;;8.70;55.00;;;;;;5055871;28;20044;-89
2023/01/29 05:32:59;;;;;;;0.30;0.30;;;8.80;55.50;;;;;;5054868;28;20049;-83
2023/01/29 05:35:25;;;;;;;0.30;0.30;;;8.70;56.20;;;;;;5055765;28;20049;-86
2023/01/29 05:37:50;;;;;;;0.32;0.32;;;8.60;55.30;;;;;;5055380;28;20040;-84
2023/01/29 05:40:16;;;;;;;0.22;0.22;;;8.70;56.20;;;;;;5056161;28;20025;-86
2023/01/29 05:42:42;;;;;;;0.30;0.30;;;8.90;56.10;;;;;;5055629;28;20029;-89
2023/01/29 05:45:08;;;;;;;0.30;0.30;;;9.10;55.30;;;;;;5055497;28;20083;-86
2023/01/29 05:47:34;;;;;;;0.30;0.30;;;9.00;54.70;;;;;;5055754;28;20039;-85
2023/01/29 05:50:00;;;;;;;0.30;0.30;;;9.00;55.80;;;;;;5072098;28;20108;-85
2023/01/29 05:52:25;;;;;;;0.30;0.30;;;9.00;55.50;;;;;;5057003;28;20474;-89
2023/01/29 05:54:51;;;;;;;0.30;0.30;;;9.20;55.10;;;;;;5072000;28;20120;-85
2023/01/29 05:57:16;;;;;;;0.30;0.30;;;9.50;54.10;;;;;;5056201;28;20067;-88
2023/01/29 05:59:42;;;;;;;0.30;0.30;;;9.60;54.20;;;;;;5055391;28;20061;-91
2023/01/29 06:02:08;;;;;;;0.30;0.30;;;9.60;54.10;;;;;;5056362;28;20013;-84
2023/01/29 06:04:33;;;;;;;0.30;0.30;;;9.50;54.20;;;;;;5056332;28;20460;-86
2023/01/29 06:07:02;;;;;;;0.20;0.20;;;9.40;54.90;;;;;;5067446;28;20024;-87
2023/01/29 06:09:28;;;;;;;0.30;0.30;;;9.50;54.30;;;;;;5076281;28;20020;-84
2023/01/29 06:11:53;;;;;;;0.30;0.30;;;9.60;54.10;;;;;;5076658;28;20032;-85
2023/01/29 06:14:19;;;;;;;0.40;0.40;;;9.70;54.20;;;;;;5076203;28;20135;-84
2023/01/29 06:16:45;;;;;;;0.30;0.30;;;9.30;54.60;;;;;;5058579;28;20051;-85
2023/01/29 06:19:10;;;;;;;0.35;0.35;;;9.40;55.20;;;;;;5054773;28;20093;-82
2023/01/29 06:21:36;;;;;;;0.20;0.20;;;9.60;54.30;;;;;;5054639;28;20071;-84
2023/01/29 06:24:02;;;;;;;0.40;0.40;;;9.90;53.90;;;;;;5054842;28;20025;-84
2023/01/29 06:26:27;;;;;;;0.30;0.30;;;9.80;53.90;;;;;;5068622;28;20040;-85
2023/01/29 06:28:53;;;;;;;0.30;0.30;;;9.60;54.10;;;;;;5074642;28;20103;-83
2023/01/29 06:31:19;;;;;;;0.30;0.30;;;9.20;55.20;;;;;;5069460;28;20021;-84
2023/01/29 06:33:44;;;;;;;0.30;0.30;;;9.20;54.90;;;;;;5069422;28;20049;-90
2023/01/29 06:36:10;;;;;;;0.30;0.30;;;9.10;55.10;;;;;;5054740;28;20039;-84
2023/01/29 06:38:36;;;;;;;0.30;0.30;;;9.00;55.60;;;;;;5054566;28;20025;-84
2023/01/29 06:41:11;;;;;;;0.30;0.30;;;9.10;56.20;;;;;;5054384;28;20354;-84
2023/01/29 06:43:37;;;;;;;0.30;0.30;;;9.50;55.30;;;;;;5054065;28;20558;-87
2023/01/29 06:46:05;;;;;;;0.30;0.30;;;9.60;54.70;;;;;;5053960;28;20075;-83
2023/01/29 06:48:31;;;;;;;0.30;0.30;;;9.90;54.20;;;;;;5058938;28;20494;-83
2023/01/29 06:51:01;;;;;;;0.30;0.30;;;9.80;54.20;;;;;;5073874;28;20059;-84
2023/01/29 06:53:27;;;;;;;0.30;0.30;;;9.90;53.80;;;;;;5073853;28;20233;-85
2023/01/29 06:55:53;;;;;;;0.30;0.30;;;9.70;54.00;;;;;;5074133;28;20383;-88
2023/01/29 06:58:40;;;;;;;0.30;0.30;;;9.70;53.80;;;;;;5086492;27;1395659;-82
2023/01/29 07:01:08;;;;;;;0.30;0.30;;;9.60;54.10;;;;;;5093423;28;20054;-83
2023/01/29 07:03:34;;;;;;;0.30;0.30;;;9.30;54.80;;;;;;5093477;28;20024;-82
2023/01/29 07:06:00;;;;;;;0.30;0.30;;;9.00;55.20;;;;;;5094038;28;20114;-83
2023/01/29 07:08:26;;;;;;;0.30;0.30;;;8.60;56.20;;;;;;5093336;28;20111;-87
2023/01/29 07:10:52;;;;;;;0.30;0.30;;;8.70;56.40;;;;;;5093436;28;20020;-85
2023/01/29 07:13:17;;;;;;;0.30;0.30;;;8.50;56.30;;;;;;5093874;28;20028;-82
2023/01/29 07:15:43;;;;;;;0.32;0.32;;;8.50;56.30;;;;;;5093550;28;20031;-89
2023/01/29 07:18:12;;;;;;;0.30;0.30;;;8.40;57.50;;;;;;5093245;28;20031;-83
2023/01/29 07:20:40;;;;;;;0.40;0.40;;;8.00;57.10;;;;;;5111129;28;20055;-83
2023/01/29 07:23:07;;;;;;;0.30;0.30;;;7.40;58.50;;;;;;5092819;28;20115;-82
2023/01/29 07:25:33;;;;;;;0.30;0.30;;;7.30;59.20;;;;;;5084589;28;20020;-84
2023/01/29 07:28:00;;;;;;;0.30;0.30;;;7.40;58.70;;;;;;5072862;28;20036;-85
2023/01/29 07:30:26;;;;;;;0.30;0.30;;;7.70;59.00;;;;;;5076072;28;20023;-88
2023/01/29 07:32:52;;;;;;;0.40;0.40;;;8.20;57.70;;;;;;5092482;28;20032;-86
2023/01/29 07:35:18;;;;;;;0.30;0.30;;;8.50;57.00;;;;;;5092652;28;20020;-79
2023/01/29 07:37:43;;;;;;;0.35;0.35;;;8.80;56.50;;;;;;5075054;28;20119;-86
2023/01/29 07:40:10;;;;;;;0.30;0.30;;;8.60;56.60;;;;;;5090264;28;20020;-86
2023/01/29 07:42:38;;;;;;;0.30;0.30;;;8.80;56.40;;;;;;5072611;28;20025;-87
2023/01/29 07:45:05;;;;;;;0.30;0.30;;;9.20;55.50;;;;;;5072716;28;20033;-86
2023/01/29 07:47:31;;;;;;;0.30;0.30;;;9.20;55.20;;;;;;5072389;28;20028;-82
2023/01/29 07:49:57;;;;;;;0.38;0.38;;;9.10;55.80;;;;;;5088950;28;20490;-87
2023/01/29 07:52:23;;;;;;;0.30;0.30;;;9.10;55.20;;;;;;5089545;28;20082;-83
2023/01/29 07:54:48;;;;;;;0.40;0.40;;;9.20;55.50;;;;;;5072295;28;20342;-85
2023/01/29 07:57:14;;;;;;;0.30;0.30;;;9.00;55.10;;;;;;5071604;28;20048;-88
2023/01/29 07:59:39;;;;;;;0.40;0.40;;;8.90;55.60;;;;;;5089097;28;20033;-83
2023/01/29 08:02:08;;;;;;;0.30;0.30;;;8.80;55.80;;;;;;5083247;28;20028;-82
2023/01/29 08:04:34;;;;;;;0.30;0.30;;;8.50;55.70;;;;;;5071582;28;20028;-85
2023/01/29 08:07:00;;;;;;;0.30;0.30;;;7.90;56.80;;;;;;5096973;28;20025;-83
2023/01/29 08:09:25;;;;;;;0.32;0.32;;;8.00;57.10;;;;;;5086572;28;20085;-84
2023/01/29 08:11:51;;;;;;;0.30;0.30;;;8.30;57.10;;;;;;5087897;28;20024;-83
2023/01/29 08:14:17;;;;;;;0.22;0.22;;;8.20;56.00;;;;;;5058534;28;20051;-85
2023/01/29 08:16:43;;;;;;;0.30;0.30;;;8.10;56.60;;;;;;5058181;28;20399;-83
2023/01/29 08:19:08;;;;;;;0.30;0.30;;;8.00;57.30;;;;;;5057203;28;20112;-84
2023/01/29 08:21:34;;;;;;;0.30;0.30;;;8.20;56.60;;;;;;5038465;28;20025;-86
2023/01/29 08:23:59;;;;;;;0.30;0.30;;;8.50;55.80;;;;;;5056245;28;20032;-84
2023/01/29 08:26:26;;;;;;;0.40;0.40;;;8.70;55.30;;;;;;5057645;28;20024;-86
2023/01/29 08:28:52;;;;;;;0.20;0.20;;;8.20;56.00;;;;;;5052604;28;20020;-84
2023/01/29 08:31:21;;;;;;;0.30;0.30;;;8.10;57.40;;;;;;4355012;28;10000722;-82
2023/01/29 08:33:47;;;;;;;0.30;0.30;;;8.20;55.90;;;;;;5051276;28;20101;-83
2023/01/29 08:36:13;;;;;;;0.30;0.30;;;8.30;56.80;;;;;;5051969;28;20025;-88
2023/01/29 08:38:39;;;;;;;0.20;0.20;;;8.60;56.00;;;;;;5038254;28;20027;-86
2023/01/29 08:41:05;;;;;;;0.30;0.30;;;8.20;56.00;;;;;;5038317;28;20067;-85
2023/01/29 08:43:31;;;;;;;0.40;0.40;;;8.10;56.40;;;;;;5038122;28;20035;-84
2023/01/29 08:45:57;;;;;;;0.30;0.30;;;8.50;56.10;;;;;;5038480;28;20021;-88
2023/01/29 08:48:24;;;;;;;0.40;0.40;;;8.80;55.30;;;;;;5038231;28;20055;-84
2023/01/29 08:50:52;;;;;;;0.30;0.30;;;8.90;54.80;;;;;;5052720;28;20024;-84
2023/01/29 08:53:23;;;;;;;0.32;0.32;;;8.90;54.80;;;;;;5057144;28;20547;-84
2023/01/29 08:55:48;;;;;;;0.40;0.40;;;8.90;54.80;;;;;;5057476;28;20020;-87
2023/01/29 08:58:14;;;;;;;0.30;0.30;;;8.70;54.80;;;;;;5056325;28;20068;-86
2023/01/29 09:00:40;;;;;;;0.30;0.30;;;9.10;54.80;;;;;;5057155;28;20025;-84
2023/01/29 09:03:06;;;;;;;0.30;0.30;;;9.40;53.90;;;;;;5057363;28;20462;-84
2023/01/29 09:05:34;;;;;;;0.30;0.30;;;8.90;53.80;;;;;;5057518;28;20029;-84
2023/01/29 09:07:59;;;;;;;0.30;0.30;;;8.60;55.00;;;;;;5049035;28;20028;-85
2023/01/29 09:10:25;;;;;;;0.30;0.30;;;8.90;55.40;;;;;;5057046;28;20025;-85
2023/01/29 09:12:51;;;;;;;0.40;0.40;;;8.70;55.30;;;;;;5053177;28;20078;-85
2023/01/29 09:15:17;;;;;;;0.30;0.30;;;8.60;54.60;;;;;;5054276;28;20037;-83
2023/01/29 09:17:43;;;;;;;0.30;0.30;;;8.40;54.60;;;;;;5073719;28;20120;-87
2023/01/29 09:22:42;;;;;;;0.30;0.30;;;7.80;55.10;;;;;;5126755;27;20387;-84
2023/01/29 09:25:09;;;;;;;0.20;0.20;;;7.70;55.80;;;;;;5122221;28;20081;-82
2023/01/29 09:27:35;;;;;;;0.30;0.30;;;8.10;55.50;;;;;;5110300;28;20363;-83
2023/01/29 09:30:02;;;;;;;0.30;0.30;;;8.30;54.50;;;;;;5110531;28;20119;-83
2023/01/29 09:32:29;;;;;;;0.30;0.30;;;8.50;54.80;;;;;;5110758;28;20020;-83
2023/01/29 09:34:55;;;;;;;0.30;0.30;;;8.70;53.50;;;;;;5099064;28;20367;-83
2023/01/29 09:37:22;;;;;;;0.35;0.35;;;8.20;54.40;;;;;;5090328;28;20027;-85
2023/01/29 09:39:48;;;;;;;0.40;0.40;;;8.30;54.80;;;;;;5113429;28;20473;-84
2023/01/29 09:42:34;;;;;;;0.35;0.35;;;8.20;53.90;;;;;;5127008;28;20040;-86
2023/01/29 09:45:09;;;;;;;0.30;0.30;;;8.00;54.50;;;;;;5101155;28;20035;-85
2023/01/29 09:47:36;;;;;;;0.30;0.30;;;7.30;55.50;;;;;;5119675;28;20037;-86
2023/01/29 09:50:04;;;;;;;0.30;0.30;;;7.40;56.50;;;;;;5109820;28;20055;-85
2023/01/29 09:52:42;;;;;;;0.30;0.30;;;8.10;54.90;;;;;;5108583;28;20112;-82
2023/01/29 09:55:28;;;;;;;0.40;0.40;;;8.10;53.90;;;;;;5108016;28;20032;-83
2023/01/29 09:57:57;;;;;;;0.30;0.30;;;7.90;54.30;;;;;;5109930;28;20535;-85
2023/01/29 10:00:39;;;;;;;0.30;0.30;;;7.90;55.10;;;;;;5108308;28;20123;-84
2023/01/29 10:03:32;;;;;;;0.40;0.40;;;8.30;54.30;;;;;;5100441;28;20094;-82
2023/01/29 10:06:17;;;;;;;0.30;0.30;;;8.90;53.50;;;;;;5110152;28;20122;-84
2023/01/29 10:09:03;;;;;;;0.35;0.35;;;9.40;52.50;;;;;;5092414;28;20433;-85
2023/01/29 10:11:59;;;;;;;0.30;0.30;;;9.40;51.70;;;;;;5108971;28;20034;-84
2023/01/29 10:14:52;;;;;;;0.32;0.32;;;9.50;52.10;;;;;;5090474;28;20031;-88
2023/01/29 10:17:36;;;;;;;0.30;0.30;;;9.70;51.70;;;;;;5105217;28;20031;-83
2023/01/29 10:20:29;;;;;;;0.30;0.30;;;9.10;50.70;;;;;;5103406;28;20052;-87
2023/01/29 10:23:05;;;;;;;0.30;0.30;;;9.10;52.50;;;;;;5107613;28;20039;-87
2023/01/29 10:25:35;;;;;;;0.30;0.30;;;9.10;51.40;;;;;;5094384;28;20055;-83
2023/01/29 10:28:01;;;;;;;0.32;0.32;;;9.00;51.30;;;;;;5094855;28;20023;-84
2023/01/29 10:30:35;;;;;;;0.20;0.20;;;8.80;51.20;;;;;;5106951;28;20040;-84
2023/01/29 10:33:04;;;;;;;0.22;0.22;;;8.30;51.80;;;;;;5101558;28;20107;-84
2023/01/29 10:35:38;;;;;;;0.40;0.40;;;8.10;52.80;;;;;;5073223;28;20044;-84
2023/01/29 10:38:44;;;;;;;0.30;0.30;;;8.00;52.40;;;;;;5080711;28;20036;-83
2023/01/29 10:41:10;;;;;;;0.35;0.35;;;8.50;51.60;;;;;;5002998;28;20042;-84
2023/01/29 10:43:46;;;;;;;0.40;0.40;;;8.70;51.60;;;;;;4683670;28;9999898;-82
2023/01/29 10:46:30;;;;;;;0.30;0.30;;;8.90;50.60;;;;;;5017128;28;20044;-84
2023/01/29 10:49:07;;;;;;;0.40;0.40;;;9.00;50.00;;;;;;5000104;28;20480;-84
2023/01/29 10:52:00;;;;;;;0.30;0.30;;;8.80;50.10;;;;;;5017433;28;20087;-85
2023/01/29 10:54:55;;;;;;;0.30;0.30;;;8.10;51.20;;;;;;5015767;28;20053;-84
2023/01/29 10:57:39;;;;;;;0.30;0.30;;;7.90;51.60;;;;;;5017346;28;20030;-84
2023/01/29 11:00:12;;;;;;;0.20;0.20;;;8.30;51.60;;;;;;5017139;28;20030;-86
2023/01/29 11:02:44;;;;;;;0.57;0.40;;;8.10;51.30;;;;;;5015947;28;20079;-87
2023/01/29 11:05:22;;;;;;;0.30;0.30;;;8.60;50.80;;;;;;5001404;28;20072;-80
2023/01/29 11:07:53;;;;;;;0.40;0.40;;;9.00;49.20;;;;;;5017616;28;20061;-84
2023/01/29 11:10:24;;;;;;;0.30;0.30;;;8.90;49.30;;;;;;4842250;28;10000450;-86
2023/01/29 11:12:51;;;;;;;0.30;0.30;;;8.50;50.10;;;;;;4996932;28;20269;-84
2023/01/29 11:15:27;;;;;;;0.40;0.40;;;8.60;50.50;;;;;;5049670;28;20448;-83
2023/01/29 11:18:14;;;;;;;0.40;0.40;;;8.70;50.30;;;;;;5073920;28;20052;-83
2023/01/29 11:20:44;;;;;;;0.30;0.30;;;8.50;50.80;;;;;;5073665;28;20166;-84
2023/01/29 11:23:45;;;;;;;0.30;0.30;;;8.90;50.90;;;;;;5076653;28;20036;-84
2023/01/29 11:26:16;;;;;;;0.40;0.40;;;9.40;50.00;;;;;;5015607;28;20108;-81
2023/01/29 11:28:43;;;;;;;0.30;0.30;;;9.60;49.50;;;;;;5015347;28;20080;-83
2023/01/29 11:31:37;;;;;;;0.30;0.30;;;9.50;49.70;;;;;;5015941;28;20026;-83
2023/01/29 11:34:12;;;;;;;0.20;0.20;;;9.40;48.80;;;;;;5015496;28;20037;-83
2023/01/29 11:36:38;;;;;;;0.30;0.30;;;9.10;48.40;;;;;;5032453;28;20477;-83
2023/01/29 11:39:07;;;;;;;0.30;0.30;;;9.10;49.20;;;;;;5031027;28;20408;-82
2023/01/29 11:41:42;;;;;;;0.30;0.30;;;9.10;48.70;;;;;;5043162;28;20204;-83
2023/01/29 11:44:23;;;;;;;0.40;0.40;;;9.20;48.60;;;;;;5052094;28;20025;-83
2023/01/29 11:46:48;;;;;;;;;;;9.00;48.90;;;;;;5039473;28;20447;-83
2023/01/29 11:49:31;;;;;;;0.30;0.30;;;8.50;49.60;;;;;;4671408;28;10000561;-83
2023/01/29 11:52:01;;;;;;;0.43;0.43;;;8.40;49.90;;;;;;5017860;28;20021;-83
2023/01/29 11:54:31;;;;;;;0.30;0.30;;;8.60;49.50;;;;;;5044777;28;20037;-83
2023/01/29 11:56:57;;;;;;;;;;;9.10;49.00;;;;;;5026264;28;20060;-84
2023/01/29 11:59:35;;;;;;;0.30;0.30;;;9.10;48.50;;;;;;5041897;28;19935;-81
2023/01/29 12:02:25;;;;;;;0.40;0.40;;;9.00;48.10;;;;;;5094022;28;20036;-83
2023/01/29 12:04:54;;;;;;;0.30;0.30;;;9.50;48.60;;;;;;5073563;28;20040;-82
2023/01/29 12:07:31;;;;;;;0.30;0.30;;;9.20;47.70;;;;;;5093576;28;20467;-82
2023/01/29 12:09:58;;;;;;;0.30;0.30;;;8.70;48.40;;;;;;5093148;28;20031;-83
2023/01/29 12:12:55;;;;;;;0.40;0.40;;;8.50;48.50;;;;;;5092567;28;20050;-82
2023/01/29 12:15:24;;;;;;;0.30;0.30;;;8.60;48.60;;;;;;5087827;28;20391;-82
2023/01/29 12:17:57;;;;;;;0.30;0.30;;;8.50;49.40;;;;;;5093333;28;20024;-83
2023/01/29 12:20:29;;;;;;;0.35;0.35;;;8.20;48.80;;;;;;5092923;28;20032;-82
2023/01/29 12:23:00;;;;;;;0.25;0.25;;;8.10;49.80;;;;;;5079497;28;20090;-82
2023/01/29 12:26:01;;;;;;;0.32;0.32;;;8.30;49.10;;;;;;5072918;28;20021;-82
2023/01/29 12:28:41;;;;;;;0.30;0.30;;;8.70;49.10;;;;;;5081626;28;20478;-82
2023/01/29 12:31:44;;;;;;;0.30;0.30;;;8.60;48.60;;;;;;5086936;28;20059;-85
2023/01/29 12:34:19;;;;;;;0.30;0.30;;;8.20;49.70;;;;;;5072270;28;20055;-83
2023/01/29 12:37:17;;;;;;;0.25;0.25;;;8.50;49.00;;;;;;5071775;28;20028;-83
2023/01/29 12:39:42;;;;;;;0.30;0.30;;;9.20;48.20;;;;;;5010084;28;20099;-82
2023/01/29 12:42:16;;;;;;;0.30;0.30;;;9.40;47.20;;;;;;4994890;28;20416;-84
2023/01/29 12:44:47;;;;;;;0.40;0.40;;;9.30;47.10;;;;;;4994885;28;20484;-82
2023/01/29 12:47:37;;;;;;;0.20;0.20;;;9.00;47.30;;;;;;4976491;28;20109;-85
2023/01/29 12:50:13;;;;;;;0.30;0.30;;;8.90;47.80;;;;;;5009553;28;20038;-87
2023/01/29 12:52:51;;;;;;;0.20;0.20;;;9.40;48.40;;;;;;4994086;28;20033;-82
2023/01/29 12:55:40;;;;;;;0.20;0.20;;;9.80;47.20;;;;;;4997538;28;20034;-85
2023/01/29 12:58:29;;;;;;;0.38;0.38;;;9.60;46.60;;;;;;4995380;28;20385;-82
2023/01/29 13:01:02;;;;;;;0.22;0.22;;;9.80;46.70;;;;;;5011913;28;20104;-83
2023/01/29 13:03:52;;;;;;;0.30;0.30;;;9.60;46.60;;;;;;4996209;28;20034;-82
2023/01/29 13:06:21;;;;;;;;;;;9.70;47.90;;;;;;5012123;28;20068;-82
2023/01/29 13:08:53;;;;;;;0.32;0.32;;;9.80;46.90;;;;;;5011338;28;19905;-83
2023/01/29 13:11:28;;;;;;;0.30;0.30;;;9.80;46.70;;;;;;5011204;28;20022;-81
2023/01/29 13:14:11;;;;;;;0.30;0.30;;;9.70;47.00;;;;;;4995411;28;20520;-82
2023/01/29 13:16:41;;;;;;;0.30;0.30;;;9.70;47.60;;;;;;5051559;28;20036;-84
2023/01/29 13:19:30;;;;;;;0.30;0.30;;;9.50;47.70;;;;;;5072381;28;20024;-84
2023/01/29 13:21:59;;;;;;;0.30;0.30;;;9.80;47.10;;;;;;5072747;28;20056;-82
2023/01/29 13:24:32;;;;;;;0.30;0.30;;;9.50;46.50;;;;;;5082169;28;20379;-84
2023/01/29 13:26:58;;;;;;;0.30;0.30;;;9.20;48.10;;;;;;5092486;28;20024;-82
2023/01/29 13:29:26;;;;;;;0.30;0.30;;;9.40;46.70;;;;;;5092785;28;20020;-81
2023/01/29 13:32:00;;;;;;;0.30;0.30;;;9.40;46.80;;;;;;5093693;28;20059;-83
2023/01/29 13:34:36;;;;;;;0.40;0.40;;;9.20;47.00;;;;;;5092922;28;20052;-86
2023/01/29 13:37:11;;;;;;;0.30;0.30;;;9.40;47.40;;;;;;5093616;28;20016;-90
2023/01/29 13:39:44;;;;;;;0.38;0.38;;;9.60;47.30;;;;;;5101615;28;20072;-82
2023/01/29 13:42:39;;;;;;;0.30;0.30;;;9.60;46.80;;;;;;5113906;28;20028;-83
2023/01/29 13:45:07;;;;;;;0.30;0.30;;;9.60;47.10;;;;;;5113102;28;20036;-85
2023/01/29 13:47:37;;;;;;;0.30;0.30;;;9.60;47.20;;;;;;5113484;28;20084;-84
2023/01/29 13:50:27;;;;;;;0.40;0.40;;;9.40;46.00;;;;;;5113077;28;20051;-84
2023/01/29 13:52:57;;;;;;;0.30;0.30;;;8.80;47.40;;;;;;5112460;28;20023;-82
2023/01/29 13:55:31;;;;;;;0.30;0.30;;;8.60;48.10;;;;;;5078260;28;20031;-83
2023/01/29 13:58:14;;;;;;;0.30;0.30;;;8.60;48.30;;;;;;5091932;28;20047;-85